sensor_id;sensor_type;location;lat;lon;timestamp;P1;durP1;ratioP1;P2;durP2;ratioP2
18685;SDS011;9473;52.342;13.110;2023-02-07T00:00:22;29.42;;;12.45;;
18685;SDS011;9473;52.342;13.110;2023-02-07T00:02:50;31.75;;;12.65;;
18685;SDS011;9473;52.342;13.110;2023-02-07T00:05:19;38.30;;;12.05;;
18685;SDS011;9473;52.342;13.110;2023-02-07T00:07:46;33.63;;;11.73;;
18685;SDS011;9473;52.342;13.110;2023-02-07T00:10:13;45.30;;;14.35;;
18685;SDS011;9473;52.342;13.110;2023-02-07T00:12:40;49.20;;;14.60;;
18685;SDS011;9473;52.342;13.110;2023-02-07T00:15:09;38.45;;;13.40;;
18685;SDS011;9473;52.342;13.110;2023-02-07T00:17:36;33.72;;;12.50;;
18685;SDS011;9473;52.342;13.110;2023-02-07T00:20:03;42.83;;;13.82;;
18685;SDS011;9473;52.342;13.110;2023-02-07T00:22:30;35.88;;;12.50;;
18685;SDS011;9473;52.342;13.110;2023-02-07T00:24:57;43.63;;;14.60;;
18685;SDS011;9473;52.342;13.110;2023-02-07T00:27:24;44.65;;;14.05;;
18685;SDS011;9473;52.342;13.110;2023-02-07T00:29:51;42.35;;;14.32;;
18685;SDS011;9473;52.342;13.110;2023-02-07T00:32:19;39.85;;;13.07;;
18685;SDS011;9473;52.342;13.110;2023-02-07T00:34:46;49.03;;;14.65;;
18685;SDS011;9473;52.342;13.110;2023-02-07T00:37:15;43.83;;;15.10;;
18685;SDS011;9473;52.342;13.110;2023-02-07T00:39:42;36.70;;;12.43;;
18685;SDS011;9473;52.342;13.110;2023-02-07T00:42:09;39.65;;;13.52;;
18685;SDS011;9473;52.342;13.110;2023-02-07T00:44:36;44.63;;;14.85;;
18685;SDS011;9473;52.342;13.110;2023-02-07T00:47:03;45.17;;;13.60;;
18685;SDS011;9473;52.342;13.110;2023-02-07T00:49:31;45.70;;;15.00;;
18685;SDS011;9473;52.342;13.110;2023-02-07T00:51:58;46.05;;;13.57;;
18685;SDS011;9473;52.342;13.110;2023-02-07T00:54:25;41.42;;;13.20;;
18685;SDS011;9473;52.342;13.110;2023-02-07T00:56:52;45.50;;;14.65;;
18685;SDS011;9473;52.342;13.110;2023-02-07T00:59:19;41.72;;;14.48;;
18685;SDS011;9473;52.342;13.110;2023-02-07T01:01:46;33.63;;;12.30;;
18685;SDS011;9473;52.342;13.110;2023-02-07T01:04:13;40.58;;;14.48;;
18685;SDS011;9473;52.342;13.110;2023-02-07T01:06:41;37.65;;;11.93;;
18685;SDS011;9473;52.342;13.110;2023-02-07T01:09:08;35.63;;;12.13;;
18685;SDS011;9473;52.342;13.110;2023-02-07T01:11:35;42.75;;;13.85;;
18685;SDS011;9473;52.342;13.110;2023-02-07T01:14:02;40.17;;;13.05;;
18685;SDS011;9473;52.342;13.110;2023-02-07T01:16:30;42.70;;;14.43;;
18685;SDS011;9473;52.342;13.110;2023-02-07T01:18:57;44.75;;;13.93;;
18685;SDS011;9473;52.342;13.110;2023-02-07T01:21:25;32.92;;;11.45;;
18685;SDS011;9473;52.342;13.110;2023-02-07T01:23:53;36.65;;;13.48;;
18685;SDS011;9473;52.342;13.110;2023-02-07T01:26:21;39.80;;;12.65;;
18685;SDS011;9473;52.342;13.110;2023-02-07T01:28:48;39.58;;;12.32;;
18685;SDS011;9473;52.342;13.110;2023-02-07T01:31:15;36.17;;;12.35;;
18685;SDS011;9473;52.342;13.110;2023-02-07T01:33:42;44.55;;;14.27;;
18685;SDS011;9473;52.342;13.110;2023-02-07T01:36:10;39.10;;;13.07;;
18685;SDS011;9473;52.342;13.110;2023-02-07T01:38:37;43.90;;;14.38;;
18685;SDS011;9473;52.342;13.110;2023-02-07T01:41:06;38.35;;;12.40;;
18685;SDS011;9473;52.342;13.110;2023-02-07T01:43:33;42.90;;;13.45;;
18685;SDS011;9473;52.342;13.110;2023-02-07T01:46:00;37.85;;;12.77;;
18685;SDS011;9473;52.342;13.110;2023-02-07T01:48:28;34.85;;;11.98;;
18685;SDS011;9473;52.342;13.110;2023-02-07T01:50:55;36.30;;;11.77;;
18685;SDS011;9473;52.342;13.110;2023-02-07T01:53:24;41.13;;;13.13;;
18685;SDS011;9473;52.342;13.110;2023-02-07T01:55:53;41.92;;;14.15;;
18685;SDS011;9473;52.342;13.110;2023-02-07T01:58:23;41.08;;;12.52;;
18685;SDS011;9473;52.342;13.110;2023-02-07T02:00:51;45.60;;;13.65;;
18685;SDS011;9473;52.342;13.110;2023-02-07T02:03:18;40.22;;;12.20;;
18685;SDS011;9473;52.342;13.110;2023-02-07T02:05:45;36.33;;;12.05;;
18685;SDS011;9473;52.342;13.110;2023-02-07T02:08:12;44.53;;;12.32;;
18685;SDS011;9473;52.342;13.110;2023-02-07T02:10:45;43.17;;;12.15;;
18685;SDS011;9473;52.342;13.110;2023-02-07T02:13:17;40.47;;;12.40;;
18685;SDS011;9473;52.342;13.110;2023-02-07T02:15:49;31.95;;;11.63;;
18685;SDS011;9473;52.342;13.110;2023-02-07T02:18:40;35.33;;;11.98;;
18685;SDS011;9473;52.342;13.110;2023-02-07T02:21:33;44.03;;;11.50;;
18685;SDS011;9473;52.342;13.110;2023-02-07T02:24:10;51.17;;;14.57;;
18685;SDS011;9473;52.342;13.110;2023-02-07T02:26:42;41.10;;;12.60;;
18685;SDS011;9473;52.342;13.110;2023-02-07T02:29:21;29.88;;;10.10;;
18685;SDS011;9473;52.342;13.110;2023-02-07T02:34:35;31.13;;;10.32;;
18685;SDS011;9473;52.342;13.110;2023-02-07T02:37:05;31.40;;;10.07;;
18685;SDS011;9473;52.342;13.110;2023-02-07T02:39:36;27.67;;;11.40;;
18685;SDS011;9473;52.342;13.110;2023-02-07T02:42:07;32.90;;;10.90;;
18685;SDS011;9473;52.342;13.110;2023-02-07T02:44:37;31.92;;;11.80;;
18685;SDS011;9473;52.342;13.110;2023-02-07T02:47:05;32.00;;;10.57;;
18685;SDS011;9473;52.342;13.110;2023-02-07T02:49:35;35.88;;;10.68;;
18685;SDS011;9473;52.342;13.110;2023-02-07T02:52:03;31.30;;;9.75;;
18685;SDS011;9473;52.342;13.110;2023-02-07T02:54:31;37.50;;;12.20;;
18685;SDS011;9473;52.342;13.110;2023-02-07T02:57:05;36.17;;;12.07;;
18685;SDS011;9473;52.342;13.110;2023-02-07T02:59:40;37.83;;;12.20;;
18685;SDS011;9473;52.342;13.110;2023-02-07T03:02:15;37.40;;;12.65;;
18685;SDS011;9473;52.342;13.110;2023-02-07T03:04:51;37.47;;;12.50;;
18685;SDS011;9473;52.342;13.110;2023-02-07T03:07:27;31.23;;;11.48;;
18685;SDS011;9473;52.342;13.110;2023-02-07T03:10:00;29.73;;;10.55;;
18685;SDS011;9473;52.342;13.110;2023-02-07T03:12:30;33.00;;;11.77;;
18685;SDS011;9473;52.342;13.110;2023-02-07T03:15:00;34.35;;;12.00;;
18685;SDS011;9473;52.342;13.110;2023-02-07T03:17:29;35.17;;;10.80;;
18685;SDS011;9473;52.342;13.110;2023-02-07T03:20:00;35.20;;;10.98;;
18685;SDS011;9473;52.342;13.110;2023-02-07T03:22:29;27.73;;;9.15;;
18685;SDS011;9473;52.342;13.110;2023-02-07T03:24:57;28.48;;;9.07;;
18685;SDS011;9473;52.342;13.110;2023-02-07T03:27:26;30.60;;;10.45;;
18685;SDS011;9473;52.342;13.110;2023-02-07T03:29:54;33.25;;;12.10;;
18685;SDS011;9473;52.342;13.110;2023-02-07T03:32:23;35.60;;;11.63;;
18685;SDS011;9473;52.342;13.110;2023-02-07T03:34:52;37.85;;;11.30;;
18685;SDS011;9473;52.342;13.110;2023-02-07T03:37:22;39.65;;;12.65;;
18685;SDS011;9473;52.342;13.110;2023-02-07T03:39:50;27.90;;;9.60;;
18685;SDS011;9473;52.342;13.110;2023-02-07T03:42:19;31.58;;;10.85;;
18685;SDS011;9473;52.342;13.110;2023-02-07T03:44:48;30.70;;;10.07;;
18685;SDS011;9473;52.342;13.110;2023-02-07T03:47:16;37.28;;;11.88;;
18685;SDS011;9473;52.342;13.110;2023-02-07T03:49:43;35.38;;;11.80;;
18685;SDS011;9473;52.342;13.110;2023-02-07T03:52:10;30.42;;;10.63;;
18685;SDS011;9473;52.342;13.110;2023-02-07T03:54:38;37.95;;;11.35;;
18685;SDS011;9473;52.342;13.110;2023-02-07T03:57:05;31.77;;;11.10;;
18685;SDS011;9473;52.342;13.110;2023-02-07T03:59:32;38.53;;;12.30;;
18685;SDS011;9473;52.342;13.110;2023-02-07T04:01:59;26.13;;;9.13;;
18685;SDS011;9473;52.342;13.110;2023-02-07T04:04:26;36.65;;;11.82;;
18685;SDS011;9473;52.342;13.110;2023-02-07T04:06:53;35.80;;;12.38;;
18685;SDS011;9473;52.342;13.110;2023-02-07T04:09:20;32.40;;;10.73;;
18685;SDS011;9473;52.342;13.110;2023-02-07T04:11:48;30.83;;;10.20;;
18685;SDS011;9473;52.342;13.110;2023-02-07T04:14:16;37.15;;;11.80;;
18685;SDS011;9473;52.342;13.110;2023-02-07T04:16:43;35.08;;;10.90;;
18685;SDS011;9473;52.342;13.110;2023-02-07T04:19:10;32.53;;;11.15;;
18685;SDS011;9473;52.342;13.110;2023-02-07T04:21:37;38.03;;;11.98;;
18685;SDS011;9473;52.342;13.110;2023-02-07T04:24:04;32.78;;;10.43;;
18685;SDS011;9473;52.342;13.110;2023-02-07T04:26:31;33.65;;;11.43;;
18685;SDS011;9473;52.342;13.110;2023-02-07T04:29:00;26.77;;;9.43;;
18685;SDS011;9473;52.342;13.110;2023-02-07T04:31:27;28.60;;;9.52;;
18685;SDS011;9473;52.342;13.110;2023-02-07T04:33:54;30.75;;;9.57;;
18685;SDS011;9473;52.342;13.110;2023-02-07T04:36:21;25.85;;;8.93;;
18685;SDS011;9473;52.342;13.110;2023-02-07T04:38:48;31.40;;;10.05;;
18685;SDS011;9473;52.342;13.110;2023-02-07T04:41:15;36.25;;;11.52;;
18685;SDS011;9473;52.342;13.110;2023-02-07T04:43:42;29.90;;;9.98;;
18685;SDS011;9473;52.342;13.110;2023-02-07T04:46:10;31.52;;;11.05;;
18685;SDS011;9473;52.342;13.110;2023-02-07T04:48:37;26.33;;;9.75;;
18685;SDS011;9473;52.342;13.110;2023-02-07T04:51:04;29.80;;;9.57;;
18685;SDS011;9473;52.342;13.110;2023-02-07T04:53:31;30.85;;;10.82;;
18685;SDS011;9473;52.342;13.110;2023-02-07T04:55:59;29.05;;;10.25;;
18685;SDS011;9473;52.342;13.110;2023-02-07T04:58:26;29.98;;;10.00;;
18685;SDS011;9473;52.342;13.110;2023-02-07T05:00:53;36.40;;;10.77;;
18685;SDS011;9473;52.342;13.110;2023-02-07T05:03:21;31.17;;;10.13;;
18685;SDS011;9473;52.342;13.110;2023-02-07T05:05:48;28.70;;;9.38;;
18685;SDS011;9473;52.342;13.110;2023-02-07T05:08:15;30.92;;;10.10;;
18685;SDS011;9473;52.342;13.110;2023-02-07T05:10:42;26.20;;;8.85;;
18685;SDS011;9473;52.342;13.110;2023-02-07T05:13:09;24.75;;;9.20;;
18685;SDS011;9473;52.342;13.110;2023-02-07T05:15:36;24.60;;;9.52;;
18685;SDS011;9473;52.342;13.110;2023-02-07T05:18:03;26.88;;;9.13;;
18685;SDS011;9473;52.342;13.110;2023-02-07T05:20:31;25.52;;;8.00;;
18685;SDS011;9473;52.342;13.110;2023-02-07T05:22:58;25.05;;;8.88;;
18685;SDS011;9473;52.342;13.110;2023-02-07T05:25:25;24.25;;;9.18;;
18685;SDS011;9473;52.342;13.110;2023-02-07T05:27:52;33.78;;;10.18;;
18685;SDS011;9473;52.342;13.110;2023-02-07T05:30:19;25.33;;;8.43;;
18685;SDS011;9473;52.342;13.110;2023-02-07T05:32:46;25.75;;;9.00;;
18685;SDS011;9473;52.342;13.110;2023-02-07T05:35:27;25.60;;;9.30;;
18685;SDS011;9473;52.342;13.110;2023-02-07T05:37:56;24.00;;;8.80;;
18685;SDS011;9473;52.342;13.110;2023-02-07T05:40:23;23.63;;;8.10;;
18685;SDS011;9473;52.342;13.110;2023-02-07T05:42:49;25.15;;;9.40;;
18685;SDS011;9473;52.342;13.110;2023-02-07T05:45:16;24.15;;;8.10;;
18685;SDS011;9473;52.342;13.110;2023-02-07T05:47:43;24.73;;;8.18;;
18685;SDS011;9473;52.342;13.110;2023-02-07T05:50:10;26.10;;;9.93;;
18685;SDS011;9473;52.342;13.110;2023-02-07T05:52:37;27.05;;;8.82;;
18685;SDS011;9473;52.342;13.110;2023-02-07T05:55:06;27.40;;;9.75;;
18685;SDS011;9473;52.342;13.110;2023-02-07T05:57:33;30.30;;;9.02;;
18685;SDS011;9473;52.342;13.110;2023-02-07T06:00:00;28.90;;;10.07;;
18685;SDS011;9473;52.342;13.110;2023-02-07T06:02:27;34.28;;;10.35;;
18685;SDS011;9473;52.342;13.110;2023-02-07T06:04:54;25.80;;;8.55;;
18685;SDS011;9473;52.342;13.110;2023-02-07T06:07:21;25.38;;;8.77;;
18685;SDS011;9473;52.342;13.110;2023-02-07T06:09:48;27.95;;;8.85;;
18685;SDS011;9473;52.342;13.110;2023-02-07T06:12:16;28.45;;;9.25;;
18685;SDS011;9473;52.342;13.110;2023-02-07T06:14:43;22.92;;;8.98;;
18685;SDS011;9473;52.342;13.110;2023-02-07T06:17:10;28.70;;;9.80;;
18685;SDS011;9473;52.342;13.110;2023-02-07T06:19:37;26.75;;;9.25;;
18685;SDS011;9473;52.342;13.110;2023-02-07T06:22:04;29.80;;;9.10;;
18685;SDS011;9473;52.342;13.110;2023-02-07T06:24:31;25.13;;;8.43;;
18685;SDS011;9473;52.342;13.110;2023-02-07T06:26:57;25.70;;;8.35;;
18685;SDS011;9473;52.342;13.110;2023-02-07T06:29:26;27.70;;;9.50;;
18685;SDS011;9473;52.342;13.110;2023-02-07T06:31:53;27.33;;;10.02;;
18685;SDS011;9473;52.342;13.110;2023-02-07T06:34:20;21.08;;;7.70;;
18685;SDS011;9473;52.342;13.110;2023-02-07T06:36:46;33.72;;;9.73;;
18685;SDS011;9473;52.342;13.110;2023-02-07T06:39:13;28.42;;;9.05;;
18685;SDS011;9473;52.342;13.110;2023-02-07T06:41:40;23.80;;;7.55;;
18685;SDS011;9473;52.342;13.110;2023-02-07T06:44:07;24.85;;;8.27;;
18685;SDS011;9473;52.342;13.110;2023-02-07T06:46:35;25.95;;;7.93;;
18685;SDS011;9473;52.342;13.110;2023-02-07T06:49:02;25.85;;;8.73;;
18685;SDS011;9473;52.342;13.110;2023-02-07T06:51:29;27.20;;;8.68;;
18685;SDS011;9473;52.342;13.110;2023-02-07T06:53:56;23.23;;;9.57;;
18685;SDS011;9473;52.342;13.110;2023-02-07T06:56:27;23.42;;;7.35;;
18685;SDS011;9473;52.342;13.110;2023-02-07T06:58:54;25.55;;;8.95;;
18685;SDS011;9473;52.342;13.110;2023-02-07T07:01:21;25.30;;;9.57;;
18685;SDS011;9473;52.342;13.110;2023-02-07T07:03:49;26.05;;;8.00;;
18685;SDS011;9473;52.342;13.110;2023-02-07T07:06:16;24.77;;;8.23;;
18685;SDS011;9473;52.342;13.110;2023-02-07T07:08:43;16.05;;;6.65;;
18685;SDS011;9473;52.342;13.110;2023-02-07T07:11:10;21.33;;;7.53;;
18685;SDS011;9473;52.342;13.110;2023-02-07T07:13:37;25.10;;;8.27;;
18685;SDS011;9473;52.342;13.110;2023-02-07T07:16:04;21.77;;;7.78;;
18685;SDS011;9473;52.342;13.110;2023-02-07T07:18:31;19.88;;;7.43;;
18685;SDS011;9473;52.342;13.110;2023-02-07T07:20:59;19.30;;;8.32;;
18685;SDS011;9473;52.342;13.110;2023-02-07T07:23:26;23.85;;;8.63;;
18685;SDS011;9473;52.342;13.110;2023-02-07T07:25:53;21.98;;;7.90;;
18685;SDS011;9473;52.342;13.110;2023-02-07T07:28:20;26.70;;;7.90;;
18685;SDS011;9473;52.342;13.110;2023-02-07T07:30:47;25.25;;;8.20;;
18685;SDS011;9473;52.342;13.110;2023-02-07T07:33:13;18.10;;;7.05;;
18685;SDS011;9473;52.342;13.110;2023-02-07T07:35:40;23.67;;;7.80;;
18685;SDS011;9473;52.342;13.110;2023-02-07T07:38:09;28.60;;;8.63;;
18685;SDS011;9473;52.342;13.110;2023-02-07T07:40:36;18.05;;;7.10;;
18685;SDS011;9473;52.342;13.110;2023-02-07T07:43:03;24.17;;;7.88;;
18685;SDS011;9473;52.342;13.110;2023-02-07T07:45:30;23.77;;;8.90;;
18685;SDS011;9473;52.342;13.110;2023-02-07T07:47:57;26.17;;;9.50;;
18685;SDS011;9473;52.342;13.110;2023-02-07T07:50:24;28.05;;;8.95;;
18685;SDS011;9473;52.342;13.110;2023-02-07T07:52:51;25.85;;;9.07;;
18685;SDS011;9473;52.342;13.110;2023-02-07T07:55:19;29.00;;;9.75;;
18685;SDS011;9473;52.342;13.110;2023-02-07T07:57:46;27.58;;;10.05;;
18685;SDS011;9473;52.342;13.110;2023-02-07T08:00:13;28.00;;;9.32;;
18685;SDS011;9473;52.342;13.110;2023-02-07T08:02:40;30.88;;;10.68;;
18685;SDS011;9473;52.342;13.110;2023-02-07T08:05:07;32.42;;;9.93;;
18685;SDS011;9473;52.342;13.110;2023-02-07T08:07:35;25.70;;;8.18;;
18685;SDS011;9473;52.342;13.110;2023-02-07T08:10:02;26.40;;;9.02;;
18685;SDS011;9473;52.342;13.110;2023-02-07T08:12:31;23.98;;;9.18;;
18685;SDS011;9473;52.342;13.110;2023-02-07T08:14:57;31.05;;;9.82;;
18685;SDS011;9473;52.342;13.110;2023-02-07T08:17:24;31.27;;;9.95;;
18685;SDS011;9473;52.342;13.110;2023-02-07T08:19:51;25.13;;;9.52;;
18685;SDS011;9473;52.342;13.110;2023-02-07T08:22:18;27.08;;;9.35;;
18685;SDS011;9473;52.342;13.110;2023-02-07T08:24:45;23.73;;;9.15;;
18685;SDS011;9473;52.342;13.110;2023-02-07T08:27:12;27.02;;;8.93;;
18685;SDS011;9473;52.342;13.110;2023-02-07T08:29:40;26.20;;;9.95;;
18685;SDS011;9473;52.342;13.110;2023-02-07T08:32:09;26.25;;;9.32;;
18685;SDS011;9473;52.342;13.110;2023-02-07T08:34:36;24.05;;;8.00;;
18685;SDS011;9473;52.342;13.110;2023-02-07T08:37:03;24.92;;;9.10;;
18685;SDS011;9473;52.342;13.110;2023-02-07T08:39:31;25.40;;;9.38;;
18685;SDS011;9473;52.342;13.110;2023-02-07T08:41:59;28.73;;;8.75;;
18685;SDS011;9473;52.342;13.110;2023-02-07T08:44:26;30.40;;;9.10;;
18685;SDS011;9473;52.342;13.110;2023-02-07T08:46:54;21.95;;;7.72;;
18685;SDS011;9473;52.342;13.110;2023-02-07T08:49:21;25.23;;;9.98;;
18685;SDS011;9473;52.342;13.110;2023-02-07T08:51:48;21.17;;;8.20;;
18685;SDS011;9473;52.342;13.110;2023-02-07T08:54:16;22.25;;;8.85;;
18685;SDS011;9473;52.342;13.110;2023-02-07T08:56:43;28.45;;;9.25;;
18685;SDS011;9473;52.342;13.110;2023-02-07T08:59:10;22.30;;;8.70;;
18685;SDS011;9473;52.342;13.110;2023-02-07T09:01:37;29.77;;;9.95;;
18685;SDS011;9473;52.342;13.110;2023-02-07T09:04:05;31.38;;;13.02;;
18685;SDS011;9473;52.342;13.110;2023-02-07T09:06:33;27.80;;;10.50;;
18685;SDS011;9473;52.342;13.110;2023-02-07T09:09:00;26.40;;;9.52;;
18685;SDS011;9473;52.342;13.110;2023-02-07T09:11:27;25.67;;;9.20;;
18685;SDS011;9473;52.342;13.110;2023-02-07T09:13:54;23.90;;;8.52;;
18685;SDS011;9473;52.342;13.110;2023-02-07T09:16:21;31.92;;;13.50;;
18685;SDS011;9473;52.342;13.110;2023-02-07T09:18:48;25.05;;;9.75;;
18685;SDS011;9473;52.342;13.110;2023-02-07T09:21:17;24.20;;;9.68;;
18685;SDS011;9473;52.342;13.110;2023-02-07T09:23:44;26.58;;;9.13;;
18685;SDS011;9473;52.342;13.110;2023-02-07T09:26:14;25.25;;;9.52;;
18685;SDS011;9473;52.342;13.110;2023-02-07T09:28:42;26.17;;;9.30;;
18685;SDS011;9473;52.342;13.110;2023-02-07T09:31:10;26.38;;;10.15;;
18685;SDS011;9473;52.342;13.110;2023-02-07T09:33:37;24.33;;;9.57;;
18685;SDS011;9473;52.342;13.110;2023-02-07T09:36:04;24.85;;;9.25;;
18685;SDS011;9473;52.342;13.110;2023-02-07T09:38:33;21.70;;;8.25;;
18685;SDS011;9473;52.342;13.110;2023-02-07T09:41:00;24.92;;;9.27;;
18685;SDS011;9473;52.342;13.110;2023-02-07T09:43:29;25.70;;;9.13;;
18685;SDS011;9473;52.342;13.110;2023-02-07T09:45:58;26.48;;;9.45;;
18685;SDS011;9473;52.342;13.110;2023-02-07T09:48:29;27.95;;;10.27;;
18685;SDS011;9473;52.342;13.110;2023-02-07T09:50:59;38.80;;;16.10;;
18685;SDS011;9473;52.342;13.110;2023-02-07T09:53:39;32.63;;;12.70;;
18685;SDS011;9473;52.342;13.110;2023-02-07T09:56:07;36.08;;;12.85;;
18685;SDS011;9473;52.342;13.110;2023-02-07T09:58:36;31.70;;;11.93;;
18685;SDS011;9473;52.342;13.110;2023-02-07T10:01:06;27.42;;;11.07;;
18685;SDS011;9473;52.342;13.110;2023-02-07T10:03:35;34.13;;;11.68;;
18685;SDS011;9473;52.342;13.110;2023-02-07T10:06:04;31.40;;;11.00;;
18685;SDS011;9473;52.342;13.110;2023-02-07T10:08:32;30.85;;;11.00;;
18685;SDS011;9473;52.342;13.110;2023-02-07T10:11:06;34.13;;;11.23;;
18685;SDS011;9473;52.342;13.110;2023-02-07T10:13:40;28.52;;;10.00;;
18685;SDS011;9473;52.342;13.110;2023-02-07T10:16:13;29.52;;;10.45;;
18685;SDS011;9473;52.342;13.110;2023-02-07T10:18:44;29.05;;;10.20;;
18685;SDS011;9473;52.342;13.110;2023-02-07T10:21:14;32.13;;;10.32;;
18685;SDS011;9473;52.342;13.110;2023-02-07T10:23:48;30.00;;;11.52;;
18685;SDS011;9473;52.342;13.110;2023-02-07T10:26:21;31.58;;;10.70;;
18685;SDS011;9473;52.342;13.110;2023-02-07T10:28:54;33.22;;;11.45;;
18685;SDS011;9473;52.342;13.110;2023-02-07T10:31:24;30.27;;;11.20;;
18685;SDS011;9473;52.342;13.110;2023-02-07T10:33:52;29.67;;;10.85;;
18685;SDS011;9473;52.342;13.110;2023-02-07T10:36:20;34.58;;;11.20;;
18685;SDS011;9473;52.342;13.110;2023-02-07T10:38:51;25.13;;;10.88;;
18685;SDS011;9473;52.342;13.110;2023-02-07T10:41:21;29.58;;;10.50;;
18685;SDS011;9473;52.342;13.110;2023-02-07T10:43:53;26.92;;;10.43;;
18685;SDS011;9473;52.342;13.110;2023-02-07T10:46:20;29.20;;;11.35;;
18685;SDS011;9473;52.342;13.110;2023-02-07T10:48:48;32.60;;;11.40;;
18685;SDS011;9473;52.342;13.110;2023-02-07T10:51:18;35.33;;;14.20;;
18685;SDS011;9473;52.342;13.110;2023-02-07T10:53:48;35.80;;;12.40;;
18685;SDS011;9473;52.342;13.110;2023-02-07T10:56:15;32.60;;;12.27;;
18685;SDS011;9473;52.342;13.110;2023-02-07T10:58:43;31.67;;;12.52;;
18685;SDS011;9473;52.342;13.110;2023-02-07T11:01:18;26.73;;;10.40;;
18685;SDS011;9473;52.342;13.110;2023-02-07T11:03:46;29.58;;;11.35;;
18685;SDS011;9473;52.342;13.110;2023-02-07T11:06:13;32.53;;;12.60;;
18685;SDS011;9473;52.342;13.110;2023-02-07T11:08:40;34.75;;;12.60;;
18685;SDS011;9473;52.342;13.110;2023-02-07T11:11:23;28.30;;;12.20;;
18685;SDS011;9473;52.342;13.110;2023-02-07T11:13:50;30.10;;;11.65;;
18685;SDS011;9473;52.342;13.110;2023-02-07T11:16:20;43.50;;;16.95;;
18685;SDS011;9473;52.342;13.110;2023-02-07T11:18:52;32.97;;;12.95;;
18685;SDS011;9473;52.342;13.110;2023-02-07T11:21:22;32.53;;;11.43;;
18685;SDS011;9473;52.342;13.110;2023-02-07T11:23:50;31.08;;;11.65;;
18685;SDS011;9473;52.342;13.110;2023-02-07T11:26:19;26.98;;;10.60;;
18685;SDS011;9473;52.342;13.110;2023-02-07T11:28:49;32.60;;;14.38;;
18685;SDS011;9473;52.342;13.110;2023-02-07T11:31:16;29.30;;;11.55;;
18685;SDS011;9473;52.342;13.110;2023-02-07T11:33:45;25.58;;;10.10;;
18685;SDS011;9473;52.342;13.110;2023-02-07T11:36:19;24.92;;;10.60;;
18685;SDS011;9473;52.342;13.110;2023-02-07T11:38:47;29.45;;;10.60;;
18685;SDS011;9473;52.342;13.110;2023-02-07T11:41:18;24.02;;;9.55;;
18685;SDS011;9473;52.342;13.110;2023-02-07T11:43:53;28.58;;;9.88;;
18685;SDS011;9473;52.342;13.110;2023-02-07T11:46:20;31.50;;;10.02;;
18685;SDS011;9473;52.342;13.110;2023-02-07T11:48:51;24.45;;;9.82;;
18685;SDS011;9473;52.342;13.110;2023-02-07T11:51:19;19.90;;;8.45;;
18685;SDS011;9473;52.342;13.110;2023-02-07T11:53:46;26.35;;;8.90;;
18685;SDS011;9473;52.342;13.110;2023-02-07T11:56:21;24.15;;;7.68;;
18685;SDS011;9473;52.342;13.110;2023-02-07T11:58:49;22.13;;;7.07;;
18685;SDS011;9473;52.342;13.110;2023-02-07T12:01:18;20.60;;;7.30;;
18685;SDS011;9473;52.342;13.110;2023-02-07T12:03:51;19.63;;;7.38;;
18685;SDS011;9473;52.342;13.110;2023-02-07T12:06:22;19.30;;;6.68;;
18685;SDS011;9473;52.342;13.110;2023-02-07T12:08:53;14.40;;;6.35;;
18685;SDS011;9473;52.342;13.110;2023-02-07T12:11:21;16.27;;;6.47;;
18685;SDS011;9473;52.342;13.110;2023-02-07T12:13:50;15.73;;;6.20;;
18685;SDS011;9473;52.342;13.110;2023-02-07T12:16:20;15.80;;;5.85;;
18685;SDS011;9473;52.342;13.110;2023-02-07T12:18:50;17.58;;;6.85;;
18685;SDS011;9473;52.342;13.110;2023-02-07T12:21:20;15.80;;;5.53;;
18685;SDS011;9473;52.342;13.110;2023-02-07T12:23:51;17.05;;;6.07;;
18685;SDS011;9473;52.342;13.110;2023-02-07T12:26:20;15.75;;;6.18;;
18685;SDS011;9473;52.342;13.110;2023-02-07T12:28:50;15.63;;;5.90;;
18685;SDS011;9473;52.342;13.110;2023-02-07T12:31:21;18.38;;;6.40;;
18685;SDS011;9473;52.342;13.110;2023-02-07T12:33:54;16.58;;;6.25;;
18685;SDS011;9473;52.342;13.110;2023-02-07T12:36:25;10.82;;;5.20;;
18685;SDS011;9473;52.342;13.110;2023-02-07T12:38:53;15.43;;;6.63;;
18685;SDS011;9473;52.342;13.110;2023-02-07T12:41:22;20.05;;;7.15;;
18685;SDS011;9473;52.342;13.110;2023-02-07T12:43:54;15.73;;;6.25;;
18685;SDS011;9473;52.342;13.110;2023-02-07T12:46:29;17.10;;;6.70;;
18685;SDS011;9473;52.342;13.110;2023-02-07T12:49:04;18.75;;;6.97;;
18685;SDS011;9473;52.342;13.110;2023-02-07T12:51:40;14.18;;;6.22;;
18685;SDS011;9473;52.342;13.110;2023-02-07T12:54:16;15.45;;;6.07;;
18685;SDS011;9473;52.342;13.110;2023-02-07T12:56:48;17.17;;;6.05;;
18685;SDS011;9473;52.342;13.110;2023-02-07T12:59:19;16.27;;;6.53;;
18685;SDS011;9473;52.342;13.110;2023-02-07T13:01:48;13.65;;;5.68;;
18685;SDS011;9473;52.342;13.110;2023-02-07T13:04:26;15.50;;;6.00;;
18685;SDS011;9473;52.342;13.110;2023-02-07T13:07:01;15.40;;;6.13;;
18685;SDS011;9473;52.342;13.110;2023-02-07T13:09:29;16.85;;;6.63;;
18685;SDS011;9473;52.342;13.110;2023-02-07T13:12:00;15.70;;;6.47;;
18685;SDS011;9473;52.342;13.110;2023-02-07T13:14:34;18.83;;;6.40;;
18685;SDS011;9473;52.342;13.110;2023-02-07T13:17:08;16.55;;;6.28;;
18685;SDS011;9473;52.342;13.110;2023-02-07T13:19:42;15.43;;;6.40;;
18685;SDS011;9473;52.342;13.110;2023-02-07T13:22:13;16.13;;;6.78;;
18685;SDS011;9473;52.342;13.110;2023-02-07T13:24:44;13.45;;;6.72;;
18685;SDS011;9473;52.342;13.110;2023-02-07T13:27:13;17.23;;;6.68;;
18685;SDS011;9473;52.342;13.110;2023-02-07T13:29:42;13.43;;;5.68;;
18685;SDS011;9473;52.342;13.110;2023-02-07T13:32:10;15.50;;;5.65;;
18685;SDS011;9473;52.342;13.110;2023-02-07T13:34:39;14.23;;;5.85;;
18685;SDS011;9473;52.342;13.110;2023-02-07T13:37:09;16.38;;;5.80;;
18685;SDS011;9473;52.342;13.110;2023-02-07T13:39:41;15.82;;;6.03;;
18685;SDS011;9473;52.342;13.110;2023-02-07T13:42:15;12.13;;;5.53;;
18685;SDS011;9473;52.342;13.110;2023-02-07T13:44:44;13.43;;;5.57;;
18685;SDS011;9473;52.342;13.110;2023-02-07T13:47:21;13.02;;;5.38;;
18685;SDS011;9473;52.342;13.110;2023-02-07T13:49:52;14.45;;;5.85;;
18685;SDS011;9473;52.342;13.110;2023-02-07T13:52:25;18.00;;;6.38;;
18685;SDS011;9473;52.342;13.110;2023-02-07T13:54:55;14.43;;;5.57;;
18685;SDS011;9473;52.342;13.110;2023-02-07T13:57:37;14.27;;;5.40;;
18685;SDS011;9473;52.342;13.110;2023-02-07T14:00:27;14.35;;;5.63;;
18685;SDS011;9473;52.342;13.110;2023-02-07T14:02:55;13.52;;;5.85;;
18685;SDS011;9473;52.342;13.110;2023-02-07T14:05:25;14.27;;;5.70;;
18685;SDS011;9473;52.342;13.110;2023-02-07T14:07:58;11.35;;;5.38;;
18685;SDS011;9473;52.342;13.110;2023-02-07T14:10:33;13.18;;;5.20;;
18685;SDS011;9473;52.342;13.110;2023-02-07T14:13:01;11.73;;;5.20;;
18685;SDS011;9473;52.342;13.110;2023-02-07T14:18:33;17.15;;;5.60;;
18685;SDS011;9473;52.342;13.110;2023-02-07T14:21:05;14.15;;;5.55;;
18685;SDS011;9473;52.342;13.110;2023-02-07T14:23:56;13.32;;;5.68;;
18685;SDS011;9473;52.342;13.110;2023-02-07T14:26:48;12.90;;;5.82;;
18685;SDS011;9473;52.342;13.110;2023-02-07T14:32:20;18.10;;;6.45;;
18685;SDS011;9473;52.342;13.110;2023-02-07T14:34:57;15.57;;;5.65;;
18685;SDS011;9473;52.342;13.110;2023-02-07T14:37:35;13.60;;;5.72;;
18685;SDS011;9473;52.342;13.110;2023-02-07T14:40:15;15.90;;;6.50;;
18685;SDS011;9473;52.342;13.110;2023-02-07T14:42:51;16.73;;;6.15;;
18685;SDS011;9473;52.342;13.110;2023-02-07T14:45:18;15.25;;;5.97;;
18685;SDS011;9473;52.342;13.110;2023-02-07T14:47:45;14.55;;;5.78;;